sensor_id;sensor_type;location;lat;lon;timestamp;P1;durP1;ratioP1;P2;durP2;ratioP2
77775;SDS011;73554;43.328;6.668;2023-12-07T00:01:29;6.55;;;2.03;;
77775;SDS011;73554;43.328;6.668;2023-12-07T00:03:54;5.07;;;2.58;;
77775;SDS011;73554;43.328;6.668;2023-12-07T00:06:20;4.38;;;1.70;;
77775;SDS011;73554;43.328;6.668;2023-12-07T00:08:45;4.35;;;1.73;;
77775;SDS011;73554;43.328;6.668;2023-12-07T00:11:11;5.43;;;2.20;;
77775;SDS011;73554;43.328;6.668;2023-12-07T00:13:36;4.82;;;2.10;;
77775;SDS011;73554;43.328;6.668;2023-12-07T00:16:01;4.65;;;2.13;;
77775;SDS011;73554;43.328;6.668;2023-12-07T00:18:27;4.15;;;1.80;;
77775;SDS011;73554;43.328;6.668;2023-12-07T00:20:52;4.78;;;1.73;;
77775;SDS011;73554;43.328;6.668;2023-12-07T00:23:18;5.32;;;1.90;;
77775;SDS011;73554;43.328;6.668;2023-12-07T00:25:43;5.28;;;1.92;;
77775;SDS011;73554;43.328;6.668;2023-12-07T00:28:10;3.63;;;1.35;;
77775;SDS011;73554;43.328;6.668;2023-12-07T00:30:36;4.28;;;1.88;;
77775;SDS011;73554;43.328;6.668;2023-12-07T00:33:01;4.28;;;1.90;;
77775;SDS011;73554;43.328;6.668;2023-12-07T00:35:27;5.45;;;1.98;;
77775;SDS011;73554;43.328;6.668;2023-12-07T00:37:54;6.20;;;2.35;;
77775;SDS011;73554;43.328;6.668;2023-12-07T00:40:23;5.53;;;2.42;;
77775;SDS011;73554;43.328;6.668;2023-12-07T00:42:49;4.40;;;1.80;;
77775;SDS011;73554;43.328;6.668;2023-12-07T00:45:14;5.40;;;2.42;;
77775;SDS011;73554;43.328;6.668;2023-12-07T00:47:40;5.50;;;2.70;;
77775;SDS011;73554;43.328;6.668;2023-12-07T00:50:06;4.13;;;1.70;;
77775;SDS011;73554;43.328;6.668;2023-12-07T00:52:31;3.70;;;1.50;;
77775;SDS011;73554;43.328;6.668;2023-12-07T00:54:57;4.00;;;1.70;;
77775;SDS011;73554;43.328;6.668;2023-12-07T00:57:22;5.50;;;1.52;;
77775;SDS011;73554;43.328;6.668;2023-12-07T00:59:48;5.47;;;1.90;;
77775;SDS011;73554;43.328;6.668;2023-12-07T01:02:13;5.07;;;1.90;;
77775;SDS011;73554;43.328;6.668;2023-12-07T01:04:39;5.05;;;2.00;;
77775;SDS011;73554;43.328;6.668;2023-12-07T01:07:04;4.18;;;1.98;;
77775;SDS011;73554;43.328;6.668;2023-12-07T01:09:30;3.97;;;1.83;;
77775;SDS011;73554;43.328;6.668;2023-12-07T01:11:55;3.28;;;1.30;;
77775;SDS011;73554;43.328;6.668;2023-12-07T01:14:23;4.55;;;1.70;;
77775;SDS011;73554;43.328;6.668;2023-12-07T01:16:48;4.45;;;2.25;;
77775;SDS011;73554;43.328;6.668;2023-12-07T01:19:14;5.00;;;1.85;;
77775;SDS011;73554;43.328;6.668;2023-12-07T01:21:42;5.07;;;1.70;;
77775;SDS011;73554;43.328;6.668;2023-12-07T01:24:07;5.28;;;2.03;;
77775;SDS011;73554;43.328;6.668;2023-12-07T01:26:33;5.85;;;1.95;;
77775;SDS011;73554;43.328;6.668;2023-12-07T01:28:59;4.95;;;2.08;;
77775;SDS011;73554;43.328;6.668;2023-12-07T01:31:24;5.32;;;2.05;;
77775;SDS011;73554;43.328;6.668;2023-12-07T01:33:49;5.20;;;1.90;;
77775;SDS011;73554;43.328;6.668;2023-12-07T01:36:15;5.90;;;2.10;;
77775;SDS011;73554;43.328;6.668;2023-12-07T01:38:40;4.68;;;1.90;;
77775;SDS011;73554;43.328;6.668;2023-12-07T01:41:05;5.03;;;1.67;;
77775;SDS011;73554;43.328;6.668;2023-12-07T01:43:31;4.88;;;1.73;;
77775;SDS011;73554;43.328;6.668;2023-12-07T01:45:57;6.55;;;2.03;;
77775;SDS011;73554;43.328;6.668;2023-12-07T01:48:23;4.25;;;1.75;;
77775;SDS011;73554;43.328;6.668;2023-12-07T01:50:51;4.95;;;1.92;;
77775;SDS011;73554;43.328;6.668;2023-12-07T01:53:18;4.40;;;1.60;;
77775;SDS011;73554;43.328;6.668;2023-12-07T01:55:46;4.28;;;1.73;;
77775;SDS011;73554;43.328;6.668;2023-12-07T01:58:12;4.82;;;2.03;;
77775;SDS011;73554;43.328;6.668;2023-12-07T02:00:39;4.63;;;1.80;;
77775;SDS011;73554;43.328;6.668;2023-12-07T02:03:05;5.47;;;2.00;;
77775;SDS011;73554;43.328;6.668;2023-12-07T02:05:31;6.28;;;2.33;;
77775;SDS011;73554;43.328;6.668;2023-12-07T02:07:57;4.82;;;1.73;;
77775;SDS011;73554;43.328;6.668;2023-12-07T02:10:23;3.55;;;1.30;;
77775;SDS011;73554;43.328;6.668;2023-12-07T02:12:49;3.58;;;1.60;;
77775;SDS011;73554;43.328;6.668;2023-12-07T02:15:15;4.65;;;1.60;;
77775;SDS011;73554;43.328;6.668;2023-12-07T02:20:52;5.50;;;2.08;;
77775;SDS011;73554;43.328;6.668;2023-12-07T02:23:29;4.03;;;1.88;;
77775;SDS011;73554;43.328;6.668;2023-12-07T02:25:57;4.20;;;1.85;;
77775;SDS011;73554;43.328;6.668;2023-12-07T02:28:28;3.80;;;1.60;;
77775;SDS011;73554;43.328;6.668;2023-12-07T02:30:54;4.90;;;1.80;;
77775;SDS011;73554;43.328;6.668;2023-12-07T02:33:19;4.70;;;1.95;;
77775;SDS011;73554;43.328;6.668;2023-12-07T02:35:45;4.22;;;1.60;;
77775;SDS011;73554;43.328;6.668;2023-12-07T02:38:11;5.15;;;1.88;;
77775;SDS011;73554;43.328;6.668;2023-12-07T02:40:37;4.55;;;1.63;;
77775;SDS011;73554;43.328;6.668;2023-12-07T02:43:05;4.65;;;2.45;;
77775;SDS011;73554;43.328;6.668;2023-12-07T02:45:31;4.57;;;1.70;;
77775;SDS011;73554;43.328;6.668;2023-12-07T02:47:57;4.60;;;1.70;;
77775;SDS011;73554;43.328;6.668;2023-12-07T02:50:23;3.65;;;1.70;;
77775;SDS011;73554;43.328;6.668;2023-12-07T02:52:49;4.18;;;1.70;;
77775;SDS011;73554;43.328;6.668;2023-12-07T02:55:15;4.70;;;1.98;;
77775;SDS011;73554;43.328;6.668;2023-12-07T02:57:40;3.92;;;1.75;;
77775;SDS011;73554;43.328;6.668;2023-12-07T03:00:06;4.43;;;2.03;;
77775;SDS011;73554;43.328;6.668;2023-12-07T03:05:01;4.85;;;1.85;;
77775;SDS011;73554;43.328;6.668;2023-12-07T03:07:26;5.35;;;2.50;;
77775;SDS011;73554;43.328;6.668;2023-12-07T03:09:52;4.00;;;1.60;;
77775;SDS011;73554;43.328;6.668;2023-12-07T03:12:17;5.28;;;2.00;;
77775;SDS011;73554;43.328;6.668;2023-12-07T03:14:43;4.18;;;1.83;;
77775;SDS011;73554;43.328;6.668;2023-12-07T03:17:08;4.50;;;2.20;;
77775;SDS011;73554;43.328;6.668;2023-12-07T03:19:37;4.50;;;1.67;;
77775;SDS011;73554;43.328;6.668;2023-12-07T03:22:03;4.03;;;1.70;;
77775;SDS011;73554;43.328;6.668;2023-12-07T03:24:28;4.18;;;1.60;;
77775;SDS011;73554;43.328;6.668;2023-12-07T03:26:54;4.10;;;1.65;;
77775;SDS011;73554;43.328;6.668;2023-12-07T03:29:19;4.13;;;1.52;;
77775;SDS011;73554;43.328;6.668;2023-12-07T03:31:45;3.90;;;1.63;;
77775;SDS011;73554;43.328;6.668;2023-12-07T03:34:10;4.00;;;1.48;;
77775;SDS011;73554;43.328;6.668;2023-12-07T03:36:37;6.00;;;2.03;;
77775;SDS011;73554;43.328;6.668;2023-12-07T03:41:30;3.97;;;1.48;;
77775;SDS011;73554;43.328;6.668;2023-12-07T03:43:55;4.07;;;1.40;;
77775;SDS011;73554;43.328;6.668;2023-12-07T03:46:20;3.85;;;1.70;;
77775;SDS011;73554;43.328;6.668;2023-12-07T03:48:46;3.72;;;1.75;;
77775;SDS011;73554;43.328;6.668;2023-12-07T03:51:14;5.22;;;2.08;;
77775;SDS011;73554;43.328;6.668;2023-12-07T03:53:41;3.92;;;1.50;;
77775;SDS011;73554;43.328;6.668;2023-12-07T03:56:07;4.55;;;1.70;;
77775;SDS011;73554;43.328;6.668;2023-12-07T03:58:33;4.32;;;1.58;;
77775;SDS011;73554;43.328;6.668;2023-12-07T04:00:58;3.90;;;1.70;;
77775;SDS011;73554;43.328;6.668;2023-12-07T04:03:24;3.97;;;1.58;;
77775;SDS011;73554;43.328;6.668;2023-12-07T04:05:49;3.80;;;1.63;;
77775;SDS011;73554;43.328;6.668;2023-12-07T04:08:15;4.32;;;2.13;;
77775;SDS011;73554;43.328;6.668;2023-12-07T04:10:40;3.33;;;1.20;;
77775;SDS011;73554;43.328;6.668;2023-12-07T04:13:06;3.30;;;1.33;;
77775;SDS011;73554;43.328;6.668;2023-12-07T04:15:31;4.07;;;1.30;;
77775;SDS011;73554;43.328;6.668;2023-12-07T04:17:56;3.95;;;1.17;;
77775;SDS011;73554;43.328;6.668;2023-12-07T04:20:22;4.63;;;1.60;;
77775;SDS011;73554;43.328;6.668;2023-12-07T04:22:47;3.88;;;1.48;;
77775;SDS011;73554;43.328;6.668;2023-12-07T04:25:13;3.35;;;1.30;;
77775;SDS011;73554;43.328;6.668;2023-12-07T04:27:38;3.47;;;1.73;;
77775;SDS011;73554;43.328;6.668;2023-12-07T04:30:04;3.47;;;1.60;;
77775;SDS011;73554;43.328;6.668;2023-12-07T04:32:29;4.20;;;1.30;;
77775;SDS011;73554;43.328;6.668;2023-12-07T04:34:55;3.28;;;1.38;;
77775;SDS011;73554;43.328;6.668;2023-12-07T04:37:20;3.10;;;1.38;;
77775;SDS011;73554;43.328;6.668;2023-12-07T04:39:46;3.30;;;1.30;;
77775;SDS011;73554;43.328;6.668;2023-12-07T04:42:11;3.40;;;1.50;;
77775;SDS011;73554;43.328;6.668;2023-12-07T04:44:37;3.33;;;1.38;;
77775;SDS011;73554;43.328;6.668;2023-12-07T04:47:02;4.68;;;1.60;;
77775;SDS011;73554;43.328;6.668;2023-12-07T04:49:28;5.90;;;1.48;;
77775;SDS011;73554;43.328;6.668;2023-12-07T04:51:53;3.97;;;1.45;;
77775;SDS011;73554;43.328;6.668;2023-12-07T04:54:19;3.20;;;1.50;;
77775;SDS011;73554;43.328;6.668;2023-12-07T04:56:44;4.05;;;1.33;;
77775;SDS011;73554;43.328;6.668;2023-12-07T04:59:10;3.13;;;1.25;;
77775;SDS011;73554;43.328;6.668;2023-12-07T05:01:35;3.25;;;1.20;;
77775;SDS011;73554;43.328;6.668;2023-12-07T05:04:01;5.60;;;1.63;;
77775;SDS011;73554;43.328;6.668;2023-12-07T05:06:29;3.92;;;1.45;;
77775;SDS011;73554;43.328;6.668;2023-12-07T05:08:54;4.40;;;2.08;;
77775;SDS011;73554;43.328;6.668;2023-12-07T05:11:20;4.95;;;1.90;;
77775;SDS011;73554;43.328;6.668;2023-12-07T05:13:45;6.30;;;2.05;;
77775;SDS011;73554;43.328;6.668;2023-12-07T05:16:11;5.22;;;2.08;;
77775;SDS011;73554;43.328;6.668;2023-12-07T05:18:36;4.00;;;1.80;;
77775;SDS011;73554;43.328;6.668;2023-12-07T05:21:01;4.80;;;1.52;;
77775;SDS011;73554;43.328;6.668;2023-12-07T05:23:27;3.95;;;1.67;;
77775;SDS011;73554;43.328;6.668;2023-12-07T05:25:52;4.28;;;1.65;;
77775;SDS011;73554;43.328;6.668;2023-12-07T05:30:44;4.50;;;1.80;;
77775;SDS011;73554;43.328;6.668;2023-12-07T05:33:10;4.22;;;1.90;;
77775;SDS011;73554;43.328;6.668;2023-12-07T05:35:35;5.00;;;1.77;;
77775;SDS011;73554;43.328;6.668;2023-12-07T05:38:00;4.13;;;1.90;;
77775;SDS011;73554;43.328;6.668;2023-12-07T05:40:26;5.30;;;1.92;;
77775;SDS011;73554;43.328;6.668;2023-12-07T05:42:52;4.03;;;1.73;;
77775;SDS011;73554;43.328;6.668;2023-12-07T05:45:17;4.05;;;1.50;;
77775;SDS011;73554;43.328;6.668;2023-12-07T05:47:43;4.45;;;1.75;;
77775;SDS011;73554;43.328;6.668;2023-12-07T05:50:08;4.05;;;1.80;;
77775;SDS011;73554;43.328;6.668;2023-12-07T05:52:34;4.45;;;1.85;;
77775;SDS011;73554;43.328;6.668;2023-12-07T05:55:00;3.38;;;1.58;;
77775;SDS011;73554;43.328;6.668;2023-12-07T05:57:26;4.05;;;1.48;;
77775;SDS011;73554;43.328;6.668;2023-12-07T05:59:51;4.43;;;1.73;;
77775;SDS011;73554;43.328;6.668;2023-12-07T06:02:17;3.80;;;1.50;;
77775;SDS011;73554;43.328;6.668;2023-12-07T06:04:42;5.05;;;1.35;;
77775;SDS011;73554;43.328;6.668;2023-12-07T06:07:07;3.80;;;1.60;;
77775;SDS011;73554;43.328;6.668;2023-12-07T06:09:33;5.50;;;1.63;;
77775;SDS011;73554;43.328;6.668;2023-12-07T06:11:59;4.57;;;1.73;;
77775;SDS011;73554;43.328;6.668;2023-12-07T06:14:25;7.05;;;2.08;;
77775;SDS011;73554;43.328;6.668;2023-12-07T06:16:50;8.35;;;3.15;;
77775;SDS011;73554;43.328;6.668;2023-12-07T06:19:16;7.53;;;1.67;;
77775;SDS011;73554;43.328;6.668;2023-12-07T06:21:43;5.90;;;1.60;;
77775;SDS011;73554;43.328;6.668;2023-12-07T06:24:09;4.90;;;1.70;;
77775;SDS011;73554;43.328;6.668;2023-12-07T06:26:35;6.75;;;1.73;;
77775;SDS011;73554;43.328;6.668;2023-12-07T06:29:00;5.38;;;2.08;;
77775;SDS011;73554;43.328;6.668;2023-12-07T06:31:27;3.55;;;1.48;;
77775;SDS011;73554;43.328;6.668;2023-12-07T06:33:52;4.18;;;1.63;;
77775;SDS011;73554;43.328;6.668;2023-12-07T06:36:21;4.85;;;1.52;;
77775;SDS011;73554;43.328;6.668;2023-12-07T06:38:47;4.00;;;1.92;;
77775;SDS011;73554;43.328;6.668;2023-12-07T06:41:14;3.95;;;1.58;;
77775;SDS011;73554;43.328;6.668;2023-12-07T06:43:41;3.67;;;1.60;;
77775;SDS011;73554;43.328;6.668;2023-12-07T06:46:06;3.90;;;1.70;;
77775;SDS011;73554;43.328;6.668;2023-12-07T06:48:31;9.32;;;3.17;;
77775;SDS011;73554;43.328;6.668;2023-12-07T06:50:57;15.25;;;4.93;;
77775;SDS011;73554;43.328;6.668;2023-12-07T06:53:23;18.50;;;5.55;;
77775;SDS011;73554;43.328;6.668;2023-12-07T06:55:48;14.63;;;4.93;;
77775;SDS011;73554;43.328;6.668;2023-12-07T06:58:14;13.13;;;4.97;;
77775;SDS011;73554;43.328;6.668;2023-12-07T07:00:39;8.93;;;3.30;;
77775;SDS011;73554;43.328;6.668;2023-12-07T07:03:05;8.02;;;2.88;;
77775;SDS011;73554;43.328;6.668;2023-12-07T07:05:31;6.90;;;2.58;;
77775;SDS011;73554;43.328;6.668;2023-12-07T07:07:57;6.82;;;3.10;;
77775;SDS011;73554;43.328;6.668;2023-12-07T07:10:22;5.15;;;2.15;;
77775;SDS011;73554;43.328;6.668;2023-12-07T07:12:48;8.70;;;2.78;;
77775;SDS011;73554;43.328;6.668;2023-12-07T07:15:13;5.75;;;2.58;;
77775;SDS011;73554;43.328;6.668;2023-12-07T07:17:39;7.22;;;2.42;;
77775;SDS011;73554;43.328;6.668;2023-12-07T07:20:07;5.60;;;2.40;;
77775;SDS011;73554;43.328;6.668;2023-12-07T07:22:33;7.43;;;2.70;;
77775;SDS011;73554;43.328;6.668;2023-12-07T07:24:59;8.05;;;3.33;;
77775;SDS011;73554;43.328;6.668;2023-12-07T07:27:25;6.47;;;2.28;;
77775;SDS011;73554;43.328;6.668;2023-12-07T07:29:50;5.75;;;2.83;;
77775;SDS011;73554;43.328;6.668;2023-12-07T07:32:16;6.30;;;2.42;;
77775;SDS011;73554;43.328;6.668;2023-12-07T07:34:41;4.53;;;2.05;;
77775;SDS011;73554;43.328;6.668;2023-12-07T07:37:07;6.45;;;2.70;;
77775;SDS011;73554;43.328;6.668;2023-12-07T07:39:32;7.72;;;3.80;;
77775;SDS011;73554;43.328;6.668;2023-12-07T07:41:58;9.32;;;3.95;;
77775;SDS011;73554;43.328;6.668;2023-12-07T07:44:23;12.43;;;5.75;;
77775;SDS011;73554;43.328;6.668;2023-12-07T07:46:48;16.77;;;8.57;;
77775;SDS011;73554;43.328;6.668;2023-12-07T07:49:14;16.77;;;7.63;;
77775;SDS011;73554;43.328;6.668;2023-12-07T07:51:39;16.13;;;7.38;;
77775;SDS011;73554;43.328;6.668;2023-12-07T07:54:04;14.73;;;6.50;;
77775;SDS011;73554;43.328;6.668;2023-12-07T07:56:30;15.05;;;6.88;;
77775;SDS011;73554;43.328;6.668;2023-12-07T07:58:55;11.35;;;5.50;;
77775;SDS011;73554;43.328;6.668;2023-12-07T08:01:23;12.25;;;5.40;;
77775;SDS011;73554;43.328;6.668;2023-12-07T08:03:48;10.88;;;5.05;;
77775;SDS011;73554;43.328;6.668;2023-12-07T08:06:13;12.10;;;5.97;;
77775;SDS011;73554;43.328;6.668;2023-12-07T08:08:39;11.00;;;4.55;;
77775;SDS011;73554;43.328;6.668;2023-12-07T08:11:04;8.45;;;4.32;;
77775;SDS011;73554;43.328;6.668;2023-12-07T08:13:30;8.18;;;4.03;;
77775;SDS011;73554;43.328;6.668;2023-12-07T08:15:55;8.65;;;5.03;;
77775;SDS011;73554;43.328;6.668;2023-12-07T08:18:21;9.50;;;4.88;;
77775;SDS011;73554;43.328;6.668;2023-12-07T08:20:47;10.10;;;5.20;;
77775;SDS011;73554;43.328;6.668;2023-12-07T08:23:13;9.80;;;4.78;;
77775;SDS011;73554;43.328;6.668;2023-12-07T08:25:38;9.27;;;5.03;;
77775;SDS011;73554;43.328;6.668;2023-12-07T08:28:05;8.38;;;4.20;;
77775;SDS011;73554;43.328;6.668;2023-12-07T08:30:30;8.23;;;4.00;;
77775;SDS011;73554;43.328;6.668;2023-12-07T08:32:56;10.55;;;5.05;;
77775;SDS011;73554;43.328;6.668;2023-12-07T08:35:21;8.40;;;4.00;;
77775;SDS011;73554;43.328;6.668;2023-12-07T08:37:48;9.05;;;4.25;;
77775;SDS011;73554;43.328;6.668;2023-12-07T08:40:13;7.88;;;3.53;;
77775;SDS011;73554;43.328;6.668;2023-12-07T08:42:40;7.18;;;3.13;;
77775;SDS011;73554;43.328;6.668;2023-12-07T08:45:06;6.80;;;2.90;;
77775;SDS011;73554;43.328;6.668;2023-12-07T08:47:32;7.30;;;3.58;;
77775;SDS011;73554;43.328;6.668;2023-12-07T08:49:58;6.43;;;3.22;;
77775;SDS011;73554;43.328;6.668;2023-12-07T08:52:24;8.48;;;3.67;;
77775;SDS011;73554;43.328;6.668;2023-12-07T08:54:49;8.10;;;2.78;;
77775;SDS011;73554;43.328;6.668;2023-12-07T08:57:14;5.53;;;2.60;;
77775;SDS011;73554;43.328;6.668;2023-12-07T08:59:40;5.97;;;3.25;;
77775;SDS011;73554;43.328;6.668;2023-12-07T09:02:05;8.00;;;4.13;;
77775;SDS011;73554;43.328;6.668;2023-12-07T09:04:31;6.75;;;3.33;;
77775;SDS011;73554;43.328;6.668;2023-12-07T09:06:56;8.75;;;3.15;;
77775;SDS011;73554;43.328;6.668;2023-12-07T09:09:21;7.50;;;2.83;;
77775;SDS011;73554;43.328;6.668;2023-12-07T09:11:48;6.95;;;2.90;;
77775;SDS011;73554;43.328;6.668;2023-12-07T09:14:13;7.78;;;2.72;;
77775;SDS011;73554;43.328;6.668;2023-12-07T09:16:45;5.05;;;2.40;;
77775;SDS011;73554;43.328;6.668;2023-12-07T09:19:14;7.88;;;2.88;;
77775;SDS011;73554;43.328;6.668;2023-12-07T09:21:40;6.35;;;2.85;;
77775;SDS011;73554;43.328;6.668;2023-12-07T09:24:05;5.43;;;2.95;;
77775;SDS011;73554;43.328;6.668;2023-12-07T09:26:31;5.47;;;2.38;;
77775;SDS011;73554;43.328;6.668;2023-12-07T09:28:57;5.70;;;2.85;;
77775;SDS011;73554;43.328;6.668;2023-12-07T09:31:23;8.57;;;3.38;;
77775;SDS011;73554;43.328;6.668;2023-12-07T09:33:48;6.15;;;3.20;;
77775;SDS011;73554;43.328;6.668;2023-12-07T09:36:17;5.88;;;2.95;;
77775;SDS011;73554;43.328;6.668;2023-12-07T09:38:43;6.38;;;3.33;;
77775;SDS011;73554;43.328;6.668;2023-12-07T09:41:09;8.18;;;4.10;;
77775;SDS011;73554;43.328;6.668;2023-12-07T09:46:01;6.43;;;3.28;;
77775;SDS011;73554;43.328;6.668;2023-12-07T09:48:26;6.38;;;3.38;;
77775;SDS011;73554;43.328;6.668;2023-12-07T09:53:20;5.95;;;3.30;;
77775;SDS011;73554;43.328;6.668;2023-12-07T09:55:46;6.88;;;3.13;;
77775;SDS011;73554;43.328;6.668;2023-12-07T09:58:12;8.13;;;3.53;;
77775;SDS011;73554;43.328;6.668;2023-12-07T10:00:38;7.75;;;4.05;;
77775;SDS011;73554;43.328;6.668;2023-12-07T10:03:03;7.07;;;3.75;;
77775;SDS011;73554;43.328;6.668;2023-12-07T10:05:33;8.43;;;3.42;;
77775;SDS011;73554;43.328;6.668;2023-12-07T10:07:58;5.93;;;2.90;;
77775;SDS011;73554;43.328;6.668;2023-12-07T10:10:23;6.55;;;2.90;;
77775;SDS011;73554;43.328;6.668;2023-12-07T10:12:52;5.80;;;2.60;;
77775;SDS011;73554;43.328;6.668;2023-12-07T10:15:22;6.07;;;2.83;;
77775;SDS011;73554;43.328;6.668;2023-12-07T10:20:20;6.13;;;2.60;;
77775;SDS011;73554;43.328;6.668;2023-12-07T10:23:02;5.35;;;2.47;;
77775;SDS011;73554;43.328;6.668;2023-12-07T10:25:29;5.85;;;2.28;;
77775;SDS011;73554;43.328;6.668;2023-12-07T10:27:55;5.55;;;2.85;;
77775;SDS011;73554;43.328;6.668;2023-12-07T10:30:21;5.68;;;2.90;;
77775;SDS011;73554;43.328;6.668;2023-12-07T10:32:50;6.40;;;2.67;;
77775;SDS011;73554;43.328;6.668;2023-12-07T10:37:43;5.68;;;2.45;;
77775;SDS011;73554;43.328;6.668;2023-12-07T10:40:08;7.07;;;2.67;;
77775;SDS011;73554;43.328;6.668;2023-12-07T10:42:34;6.20;;;3.08;;
77775;SDS011;73554;43.328;6.668;2023-12-07T10:45:03;6.25;;;2.65;;
77775;SDS011;73554;43.328;6.668;2023-12-07T10:47:31;6.75;;;2.85;;
77775;SDS011;73554;43.328;6.668;2023-12-07T10:50:02;6.05;;;2.78;;
77775;SDS011;73554;43.328;6.668;2023-12-07T10:52:31;8.18;;;2.92;;
77775;SDS011;73554;43.328;6.668;2023-12-07T10:55:03;6.05;;;2.60;;
77775;SDS011;73554;43.328;6.668;2023-12-07T10:57:38;6.60;;;3.22;;
77775;SDS011;73554;43.328;6.668;2023-12-07T11:00:05;5.57;;;2.70;;
77775;SDS011;73554;43.328;6.668;2023-12-07T11:02:33;5.05;;;2.33;;
77775;SDS011;73554;43.328;6.668;2023-12-07T11:07:27;7.38;;;2.22;;
77775;SDS011;73554;43.328;6.668;2023-12-07T11:10:28;4.95;;;2.53;;
77775;SDS011;73554;43.328;6.668;2023-12-07T11:13:06;5.32;;;2.47;;
77775;SDS011;73554;43.328;6.668;2023-12-07T11:15:38;8.05;;;2.58;;
77775;SDS011;73554;43.328;6.668;2023-12-07T11:18:04;6.70;;;2.30;;
77775;SDS011;73554;43.328;6.668;2023-12-07T11:20:40;5.13;;;2.00;;
77775;SDS011;73554;43.328;6.668;2023-12-07T11:23:07;6.15;;;2.33;;
77775;SDS011;73554;43.328;6.668;2023-12-07T11:25:33;5.80;;;2.20;;
77775;SDS011;73554;43.328;6.668;2023-12-07T11:28:00;7.57;;;2.05;;
77775;SDS011;73554;43.328;6.668;2023-12-07T11:30:26;4.80;;;2.30;;
77775;SDS011;73554;43.328;6.668;2023-12-07T11:32:51;6.88;;;2.30;;
77775;SDS011;73554;43.328;6.668;2023-12-07T11:35:17;5.88;;;2.22;;
77775;SDS011;73554;43.328;6.668;2023-12-07T11:38:03;4.43;;;2.08;;
77775;SDS011;73554;43.328;6.668;2023-12-07T11:40:32;6.03;;;2.05;;
77775;SDS011;73554;43.328;6.668;2023-12-07T11:43:00;6.70;;;2.40;;
77775;SDS011;73554;43.328;6.668;2023-12-07T11:45:38;7.00;;;3.15;;
77775;SDS011;73554;43.328;6.668;2023-12-07T11:48:12;6.50;;;3.05;;
77775;SDS011;73554;43.328;6.668;2023-12-07T11:53:30;4.22;;;1.60;;
77775;SDS011;73554;43.328;6.668;2023-12-07T11:55:57;3.78;;;1.42;;
77775;SDS011;73554;43.328;6.668;2023-12-07T11:58:24;5.10;;;1.70;;
77775;SDS011;73554;43.328;6.668;2023-12-07T12:00:51;3.80;;;1.45;;
77775;SDS011;73554;43.328;6.668;2023-12-07T12:03:18;5.60;;;2.60;;
77775;SDS011;73554;43.328;6.668;2023-12-07T12:05:45;5.00;;;2.13;;
77775;SDS011;73554;43.328;6.668;2023-12-07T12:08:11;4.53;;;1.30;;
77775;SDS011;73554;43.328;6.668;2023-12-07T12:10:36;4.65;;;1.75;;
77775;SDS011;73554;43.328;6.668;2023-12-07T12:13:03;4.25;;;1.52;;
77775;SDS011;73554;43.328;6.668;2023-12-07T12:15:29;4.18;;;1.63;;
77775;SDS011;73554;43.328;6.668;2023-12-07T12:20:21;4.03;;;1.55;;
77775;SDS011;73554;43.328;6.668;2023-12-07T12:22:47;4.95;;;1.90;;
77775;SDS011;73554;43.328;6.668;2023-12-07T12:25:14;3.47;;;1.48;;
77775;SDS011;73554;43.328;6.668;2023-12-07T12:27:39;4.30;;;1.67;;
77775;SDS011;73554;43.328;6.668;2023-12-07T12:30:05;4.68;;;1.50;;
77775;SDS011;73554;43.328;6.668;2023-12-07T12:32:44;4.97;;;2.38;;
77775;SDS011;73554;43.328;6.668;2023-12-07T12:35:10;4.05;;;1.80;;
77775;SDS011;73554;43.328;6.668;2023-12-07T12:37:41;4.53;;;1.65;;
77775;SDS011;73554;43.328;6.668;2023-12-07T12:40:07;3.35;;;1.60;;
77775;SDS011;73554;43.328;6.668;2023-12-07T12:42:34;5.03;;;1.70;;
77775;SDS011;73554;43.328;6.668;2023-12-07T12:45:02;4.75;;;1.88;;
77775;SDS011;73554;43.328;6.668;2023-12-07T12:47:28;6.55;;;2.00;;
77775;SDS011;73554;43.328;6.668;2023-12-07T12:49:54;4.43;;;1.95;;
77775;SDS011;73554;43.328;6.668;2023-12-07T12:52:19;4.80;;;1.65;;
77775;SDS011;73554;43.328;6.668;2023-12-07T12:54:45;4.05;;;1.42;;
77775;SDS011;73554;43.328;6.668;2023-12-07T12:57:13;4.88;;;1.70;;
77775;SDS011;73554;43.328;6.668;2023-12-07T12:59:39;4.10;;;1.65;;
77775;SDS011;73554;43.328;6.668;2023-12-07T13:02:05;3.97;;;1.60;;
77775;SDS011;73554;43.328;6.668;2023-12-07T13:04:30;4.93;;;2.30;;
77775;SDS011;73554;43.328;6.668;2023-12-07T13:06:56;3.78;;;1.60;;
77775;SDS011;73554;43.328;6.668;2023-12-07T13:09:22;5.22;;;1.67;;
77775;SDS011;73554;43.328;6.668;2023-12-07T13:11:47;4.35;;;1.38;;
77775;SDS011;73554;43.328;6.668;2023-12-07T13:14:14;4.03;;;1.60;;
77775;SDS011;73554;43.328;6.668;2023-12-07T13:16:39;4.25;;;1.58;;
77775;SDS011;73554;43.328;6.668;2023-12-07T13:19:04;3.78;;;1.60;;
77775;SDS011;73554;43.328;6.668;2023-12-07T13:21:30;3.88;;;1.60;;
77775;SDS011;73554;43.328;6.668;2023-12-07T13:23:55;4.13;;;1.75;;
77775;SDS011;73554;43.328;6.668;2023-12-07T13:26:22;4.10;;;2.00;;
77775;SDS011;73554;43.328;6.668;2023-12-07T13:28:48;4.10;;;1.60;;
77775;SDS011;73554;43.328;6.668;2023-12-07T13:31:14;5.05;;;1.48;;
77775;SDS011;73554;43.328;6.668;2023-12-07T13:33:39;4.38;;;1.73;;
77775;SDS011;73554;43.328;6.668;2023-12-07T13:36:05;3.58;;;1.42;;
77775;SDS011;73554;43.328;6.668;2023-12-07T13:38:31;3.65;;;1.42;;
77775;SDS011;73554;43.328;6.668;2023-12-07T13:40:58;6.25;;;1.75;;
77775;SDS011;73554;43.328;6.668;2023-12-07T13:45:50;5.73;;;1.63;;
77775;SDS011;73554;43.328;6.668;2023-12-07T13:48:15;4.47;;;1.80;;
77775;SDS011;73554;43.328;6.668;2023-12-07T13:50:41;3.28;;;1.33;;
77775;SDS011;73554;43.328;6.668;2023-12-07T13:53:08;4.93;;;1.70;;
77775;SDS011;73554;43.328;6.668;2023-12-07T13:55:37;4.10;;;1.30;;
77775;SDS011;73554;43.328;6.668;2023-12-07T13:58:04;4.18;;;1.52;;
77775;SDS011;73554;43.328;6.668;2023-12-07T14:00:31;3.90;;;1.60;;
77775;SDS011;73554;43.328;6.668;2023-12-07T14:02:57;3.33;;;1.35;;
77775;SDS011;73554;43.328;6.668;2023-12-07T14:05:23;4.32;;;1.60;;
77775;SDS011;73554;43.328;6.668;2023-12-07T14:10:15;3.70;;;1.50;;
77775;SDS011;73554;43.328;6.668;2023-12-07T14:12:40;5.43;;;2.20;;
77775;SDS011;73554;43.328;6.668;2023-12-07T14:15:06;3.63;;;1.55;;
77775;SDS011;73554;43.328;6.668;2023-12-07T14:17:33;4.85;;;1.60;;
77775;SDS011;73554;43.328;6.668;2023-12-07T14:20:03;5.53;;;1.55;;
77775;SDS011;73554;43.328;6.668;2023-12-07T14:22:33;5.10;;;1.85;;
77775;SDS011;73554;43.328;6.668;2023-12-07T14:25:01;6.20;;;1.70;;
77775;SDS011;73554;43.328;6.668;2023-12-07T14:27:26;3.90;;;1.42;;
77775;SDS011;73554;43.328;6.668;2023-12-07T14:29:52;4.15;;;1.77;;
77775;SDS011;73554;43.328;6.668;2023-12-07T14:32:18;2.92;;;1.15;;
77775;SDS011;73554;43.328;6.668;2023-12-07T14:34:43;4.03;;;1.83;;
77775;SDS011;73554;43.328;6.668;2023-12-07T14:37:09;4.28;;;1.60;;
77775;SDS011;73554;43.328;6.668;2023-12-07T14:39:35;4.20;;;1.80;;
77775;SDS011;73554;43.328;6.668;2023-12-07T14:42:01;4.00;;;1.50;;
77775;SDS011;73554;43.328;6.668;2023-12-07T14:46:54;3.67;;;1.30;;
77775;SDS011;73554;43.328;6.668;2023-12-07T14:49:19;4.25;;;1.55;;
77775;SDS011;73554;43.328;6.668;2023-12-07T14:54:12;3.65;;;1.27;;
77775;SDS011;73554;43.328;6.668;2023-12-07T14:56:37;3.72;;;1.50;;
77775;SDS011;73554;43.328;6.668;2023-12-07T15:01:29;3.83;;;1.20;;
77775;SDS011;73554;43.328;6.668;2023-12-07T15:03:55;3.30;;;1.30;;
77775;SDS011;73554;43.328;6.668;2023-12-07T15:06:21;2.88;;;1.20;;
77775;SDS011;73554;43.328;6.668;2023-12-07T15:08:47;4.07;;;1.55;;
77775;SDS011;73554;43.328;6.668;2023-12-07T15:11:12;3.35;;;1.40;;
77775;SDS011;73554;43.328;6.668;2023-12-07T15:13:39;4.55;;;1.70;;
77775;SDS011;73554;43.328;6.668;2023-12-07T15:16:05;3.17;;;1.23;;
77775;SDS011;73554;43.328;6.668;2023-12-07T15:18:31;3.53;;;1.30;;
77775;SDS011;73554;43.328;6.668;2023-12-07T15:20:59;5.90;;;1.85;;
77775;SDS011;73554;43.328;6.668;2023-12-07T15:23:26;3.95;;;1.65;;